createdAt,value
2022-10-29T00:01:03.855Z,68.41
2022-10-29T00:03:32.556Z,68.39
2022-10-29T00:06:01.099Z,68.43
2022-10-29T00:08:28.927Z,68.28
2022-10-29T00:10:56.386Z,68.30
2022-10-29T00:13:23.788Z,68.25
2022-10-29T00:15:51.194Z,68.38
2022-10-29T00:18:18.585Z,68.12
2022-10-29T00:20:48.378Z,68.43
2022-10-29T00:23:15.776Z,68.43
2022-10-29T00:25:43.199Z,68.16
2022-10-29T00:28:10.605Z,68.47
2022-10-29T00:30:38.021Z,68.47
2022-10-29T00:33:05.430Z,68.66
2022-10-29T00:35:32.887Z,68.74
2022-10-29T00:38:01.596Z,69.07
2022-10-29T00:40:29.013Z,68.76
2022-10-29T00:43:14.147Z,68.95
2022-10-29T00:45:41.760Z,68.95
2022-10-29T00:48:09.172Z,69.01
2022-10-29T00:50:36.576Z,69.30
2022-10-29T00:53:05.255Z,69.14
2022-10-29T00:55:32.692Z,68.94
2022-10-29T00:58:00.825Z,69.00
2022-10-29T01:00:28.244Z,69.01
2022-10-29T01:02:55.898Z,69.35
2022-10-29T01:05:24.417Z,69.14
2022-10-29T01:07:51.825Z,69.34
2022-10-29T01:10:22.072Z,69.34
2022-10-29T01:13:10.093Z,69.09
2022-10-29T01:15:42.008Z,69.47
2022-10-29T01:18:14.568Z,69.31
2022-10-29T01:21:02.923Z,69.23
2022-10-29T01:23:53.081Z,69.11
2022-10-29T01:26:47.271Z,69.28
2022-10-29T01:29:22.254Z,69.09
2022-10-29T01:31:52.421Z,69.12
2022-10-29T01:34:23.107Z,69.48
2022-10-29T01:36:53.621Z,69.24
2022-10-29T01:39:22.191Z,69.48
2022-10-29T01:41:52.123Z,69.39
2022-10-29T01:44:25.339Z,69.73
2022-10-29T01:46:55.213Z,69.76
2022-10-29T01:49:25.635Z,69.66
2022-10-29T01:51:53.037Z,69.98
2022-10-29T01:54:20.446Z,69.75
2022-10-29T01:56:54.828Z,69.96
2022-10-29T01:59:35.402Z,70.09
2022-10-29T02:02:14.523Z,69.85
2022-10-29T02:04:53.053Z,69.86
2022-10-29T02:07:23.117Z,69.81
2022-10-29T02:09:55.100Z,69.75
2022-10-29T02:12:24.022Z,69.87
2022-10-29T02:14:52.670Z,70.24
2022-10-29T02:17:21.350Z,70.14
2022-10-29T02:19:48.765Z,69.94
2022-10-29T02:22:16.178Z,70.12
2022-10-29T02:24:43.571Z,69.98
2022-10-29T02:27:11.025Z,69.98
2022-10-29T02:29:38.927Z,70.27
2022-10-29T02:32:06.777Z,69.92
2022-10-29T02:34:35.468Z,70.05
2022-10-29T02:37:02.871Z,70.14
2022-10-29T02:39:30.742Z,70.19
2022-10-29T02:41:58.139Z,70.54
2022-10-29T02:44:25.547Z,70.28
2022-10-29T02:46:52.978Z,70.25
2022-10-29T02:49:20.365Z,70.08
2022-10-29T02:51:49.091Z,69.96
2022-10-29T02:54:16.492Z,69.75
2022-10-29T02:56:43.895Z,70.08
2022-10-29T02:59:12.017Z,69.97
2022-10-29T03:01:41.597Z,70.15
2022-10-29T03:04:09.086Z,70.03
2022-10-29T03:06:37.252Z,70.24
2022-10-29T03:09:06.001Z,70.13
2022-10-29T03:11:33.447Z,70.24
2022-10-29T03:14:00.840Z,70.34
2022-10-29T03:16:28.247Z,70.25
2022-10-29T03:18:55.643Z,70.13
2022-10-29T03:21:23.041Z,70.31
2022-10-29T03:23:50.474Z,70.23
2022-10-29T03:26:19.163Z,70.39
2022-10-29T03:31:18.869Z,70.20
2022-10-29T03:33:46.293Z,70.61
2022-10-29T03:36:13.733Z,70.43
2022-10-29T03:38:41.181Z,70.61
2022-10-29T03:41:10.912Z,70.44
2022-10-29T03:43:39.820Z,70.49
2022-10-29T03:46:07.242Z,70.62
2022-10-29T03:48:34.901Z,70.70
2022-10-29T03:51:03.095Z,70.33
2022-10-29T03:53:30.527Z,70.65
2022-10-29T03:55:58.003Z,70.44
2022-10-29T03:58:25.635Z,70.13
2022-10-29T04:00:58.324Z,70.40
2022-10-29T04:03:25.841Z,70.52
2022-10-29T04:05:53.271Z,70.55
2022-10-29T04:08:21.031Z,70.45
2022-10-29T04:10:50.441Z,70.25
2022-10-29T04:13:17.935Z,70.38
2022-10-29T04:15:45.425Z,70.55
2022-10-29T04:18:14.122Z,70.35
2022-10-29T04:20:57.027Z,70.44
2022-10-29T04:29:05.682Z,70.56
2022-10-29T04:31:33.088Z,70.46
2022-10-29T04:34:01.876Z,70.49
2022-10-29T04:36:29.294Z,70.54
2022-10-29T04:38:56.746Z,70.57
2022-10-29T04:41:24.156Z,70.57
2022-10-29T04:43:51.562Z,70.66
2022-10-29T04:46:18.993Z,70.40
2022-10-29T04:48:46.448Z,70.49
2022-10-29T04:51:19.999Z,70.67
2022-10-29T04:53:47.401Z,70.65
2022-10-29T04:56:14.804Z,70.49
2022-10-29T04:58:42.219Z,70.44
2022-10-29T05:01:09.773Z,70.68
2022-10-29T05:03:37.281Z,70.32
2022-10-29T05:06:04.962Z,70.52
2022-10-29T05:08:33.662Z,70.75
2022-10-29T05:11:02.839Z,70.45
2022-10-29T05:13:30.243Z,70.75
2022-10-29T05:15:57.645Z,70.79
2022-10-29T05:18:25.051Z,70.77
2022-10-29T05:20:54.083Z,70.95
2022-10-29T05:23:21.567Z,70.77
2022-10-29T05:25:51.943Z,70.84
2022-10-29T05:28:20.476Z,70.80
2022-10-29T05:30:48.053Z,70.53
2022-10-29T05:33:16.790Z,70.76
2022-10-29T05:35:44.193Z,70.73
2022-10-29T05:38:11.669Z,70.86
2022-10-29T05:40:39.412Z,70.60
2022-10-29T05:43:08.121Z,70.89
2022-10-29T05:45:35.793Z,70.75
2022-10-29T05:48:03.807Z,70.88
2022-10-29T05:50:31.443Z,70.72
2022-10-29T05:52:59.160Z,70.88
2022-10-29T05:55:26.961Z,70.73
2022-10-29T05:57:56.610Z,70.92
2022-10-29T06:00:25.313Z,70.83
2022-10-29T06:02:52.941Z,70.82
2022-10-29T06:05:20.535Z,70.66
2022-10-29T06:07:47.952Z,70.59
2022-10-29T06:10:15.350Z,70.80
2022-10-29T06:12:42.750Z,70.44
2022-10-29T06:15:11.091Z,70.75
2022-10-29T06:17:42.532Z,70.84
2022-10-29T06:20:11.014Z,71.01
2022-10-29T06:22:38.415Z,71.08
2022-10-29T06:25:06.604Z,70.97
2022-10-29T06:27:34.006Z,70.95
2022-10-29T06:30:01.408Z,71.05
2022-10-29T06:32:28.837Z,71.06
2022-10-29T06:34:57.549Z,70.80
2022-10-29T06:37:24.957Z,70.80
2022-10-29T06:39:52.375Z,70.75
2022-10-29T06:42:19.774Z,71.10
2022-10-29T06:44:47.176Z,70.84
2022-10-29T06:47:14.581Z,70.86
2022-10-29T06:49:42.016Z,70.89
2022-10-29T06:52:10.709Z,71.08
2022-10-29T06:54:38.107Z,70.97
2022-10-29T06:57:05.513Z,70.94
2022-10-29T06:59:32.920Z,70.44
2022-10-29T07:02:00.400Z,70.50
2022-10-29T07:04:27.865Z,70.38
2022-10-29T07:06:55.295Z,70.79
2022-10-29T07:09:23.996Z,70.65
2022-10-29T07:11:51.393Z,70.52
2022-10-29T07:14:18.791Z,70.46
2022-10-29T07:16:46.259Z,70.45
2022-10-29T07:19:13.664Z,70.64
2022-10-29T07:21:43.863Z,70.52
2022-10-29T07:24:11.264Z,70.60
2022-10-29T07:26:39.944Z,70.61
2022-10-29T07:29:07.346Z,70.42
2022-10-29T07:31:34.746Z,70.40
2022-10-29T07:34:02.166Z,70.24
2022-10-29T07:36:30.787Z,70.40
2022-10-29T07:38:58.291Z,70.13
2022-10-29T07:41:25.697Z,70.54
2022-10-29T07:43:54.399Z,70.74
2022-10-29T07:46:21.803Z,71.09
2022-10-29T07:48:49.211Z,71.03
2022-10-29T07:51:16.617Z,71.06
2022-10-29T07:53:44.030Z,71.01
2022-10-29T07:58:38.644Z,70.92
2022-10-29T08:01:07.417Z,70.94
2022-10-29T08:03:35.078Z,70.93
2022-10-29T08:06:02.511Z,70.68
2022-10-29T08:08:30.858Z,70.71
2022-10-29T08:11:00.406Z,71.16
2022-10-29T08:13:27.817Z,70.84
2022-10-29T08:15:55.228Z,70.68
2022-10-29T08:18:23.925Z,71.35
2022-10-29T08:20:51.330Z,71.66
2022-10-29T08:23:18.975Z,71.47
2022-10-29T08:25:46.413Z,71.56
2022-10-29T08:28:14.519Z,71.42
2022-10-29T08:30:42.013Z,71.22
2022-10-29T08:33:10.680Z,71.25
2022-10-29T08:35:39.397Z,71.10
2022-10-29T08:38:06.832Z,71.58
2022-10-29T08:40:39.755Z,71.43
2022-10-29T08:43:31.382Z,72.34
2022-10-29T08:45:58.796Z,72.06
2022-10-29T08:48:35.223Z,71.76
2022-10-29T08:51:06.477Z,72.06
2022-10-29T08:53:35.934Z,72.20
2022-10-29T08:56:05.348Z,72.06
2022-10-29T08:58:34.922Z,71.94
2022-10-29T09:01:02.422Z,71.83
2022-10-29T09:03:30.379Z,72.23
2022-10-29T09:06:05.537Z,72.08
2022-10-29T09:08:38.660Z,72.23
2022-10-29T09:11:09.679Z,72.49
2022-10-29T09:13:45.245Z,72.45
2022-10-29T09:16:19.116Z,72.35
2022-10-29T09:18:57.698Z,72.37
2022-10-29T09:21:30.539Z,72.54
2022-10-29T09:24:12.647Z,72.54
2022-10-29T09:26:45.100Z,72.33
2022-10-29T09:29:24.378Z,72.12
2022-10-29T09:31:52.923Z,71.91
2022-10-29T09:34:26.235Z,72.05
2022-10-29T09:36:54.931Z,71.93
2022-10-29T09:39:28.061Z,72.01
2022-10-29T09:41:59.149Z,71.93
2022-10-29T09:44:29.343Z,71.62
2022-10-29T09:47:07.103Z,71.52
2022-10-29T09:49:44.514Z,72.05
2022-10-29T09:52:15.750Z,71.81
2022-10-29T09:54:43.171Z,71.67
2022-10-29T09:57:14.575Z,71.81
2022-10-29T09:59:43.262Z,71.84
2022-10-29T10:02:21.250Z,72.04
2022-10-29T10:04:49.009Z,72.17
2022-10-29T10:07:19.497Z,71.73
2022-10-29T10:09:55.422Z,72.35
2022-10-29T10:12:23.752Z,72.09
2022-10-29T10:15:02.311Z,72.08
2022-10-29T10:17:29.726Z,71.84
2022-10-29T10:19:57.141Z,71.83
2022-10-29T10:22:25.831Z,72.06
2022-10-29T10:24:53.333Z,72.04
2022-10-29T10:27:30.344Z,71.94
2022-10-29T10:30:11.396Z,72.01
2022-10-29T10:32:38.804Z,71.90
2022-10-29T10:35:26.335Z,71.78
2022-10-29T10:37:55.379Z,71.82
2022-10-29T10:40:24.594Z,71.64
2022-10-29T10:42:52.967Z,71.46
2022-10-29T10:45:24.367Z,71.24
2022-10-29T10:47:52.407Z,71.25
2022-10-29T10:50:21.187Z,70.97
2022-10-29T10:52:48.591Z,71.32
2022-10-29T10:55:22.843Z,70.65
2022-10-29T10:57:53.958Z,70.57
2022-10-29T11:00:22.889Z,70.47
2022-10-29T11:02:52.484Z,70.20
2022-10-29T11:05:20.832Z,70.53
2022-10-29T11:07:53.033Z,70.44
2022-10-29T11:10:21.874Z,70.31
2022-10-29T11:12:50.933Z,70.15
2022-10-29T11:15:20.826Z,70.04
2022-10-29T11:17:54.042Z,69.91
2022-10-29T11:20:24.003Z,70.13
2022-10-29T11:22:55.768Z,70.13
2022-10-29T11:25:27.365Z,70.05
2022-10-29T11:27:57.016Z,70.12
2022-10-29T11:30:24.452Z,70.10
2022-10-29T11:32:55.630Z,70.16
2022-10-29T11:35:25.019Z,70.12
2022-10-29T11:37:56.401Z,69.91
2022-10-29T11:40:30.821Z,70.20
2022-10-29T11:43:07.001Z,70.11
2022-10-29T11:45:39.721Z,70.06
2022-10-29T11:48:20.532Z,70.00
2022-10-29T11:50:55.317Z,69.47
2022-10-29T11:53:30.000Z,69.72
2022-10-29T11:56:03.223Z,69.44
2022-10-29T11:58:38.068Z,69.28
2022-10-29T12:01:20.936Z,69.18
2022-10-29T12:04:02.284Z,69.06
2022-10-29T12:06:33.556Z,69.13
2022-10-29T12:09:06.527Z,69.08
2022-10-29T12:11:42.907Z,69.07
2022-10-29T12:14:18.584Z,68.85
2022-10-29T12:16:50.237Z,68.43
2022-10-29T12:19:25.628Z,68.79
2022-10-29T12:21:55.071Z,68.64
2022-10-29T12:24:38.181Z,68.33
2022-10-29T12:27:10.176Z,68.73
2022-10-29T12:29:44.170Z,68.62
2022-10-29T12:32:14.278Z,68.61
2022-10-29T12:34:42.881Z,68.60
2022-10-29T12:37:12.264Z,68.38
2022-10-29T12:39:41.568Z,68.25
2022-10-29T12:42:13.877Z,68.23
2022-10-29T12:44:45.183Z,68.42
2022-10-29T12:47:14.944Z,68.37
2022-10-29T12:49:48.496Z,68.54
2022-10-29T12:52:24.952Z,68.61
2022-10-29T12:54:52.359Z,68.43
2022-10-29T12:57:29.216Z,68.18
2022-10-29T12:59:56.842Z,68.00
2022-10-29T13:02:30.038Z,68.33
2022-10-29T13:05:16.884Z,68.06
2022-10-29T13:08:18.956Z,68.25
2022-10-29T13:10:51.492Z,68.22
2022-10-29T13:13:33.740Z,68.07
2022-10-29T13:16:02.159Z,68.07
2022-10-29T13:18:31.053Z,67.84
2022-10-29T13:20:58.908Z,67.58
2022-10-29T13:23:34.851Z,67.94
2022-10-29T13:26:02.596Z,67.44
2022-10-29T13:28:48.689Z,67.55
2022-10-29T13:31:45.190Z,67.70
2022-10-29T13:34:12.610Z,67.24
2022-10-29T13:36:40.007Z,67.46
2022-10-29T13:39:18.865Z,66.95
2022-10-29T13:41:50.321Z,67.37
2022-10-29T13:44:21.118Z,67.53
2022-10-29T13:46:48.722Z,67.13
2022-10-29T13:49:21.108Z,67.11
2022-10-29T13:51:56.606Z,67.10
2022-10-29T13:54:40.280Z,67.42
2022-10-29T13:57:11.011Z,67.04
2022-10-29T13:59:42.500Z,67.54
2022-10-29T14:02:36.643Z,67.16
2022-10-29T14:05:07.248Z,67.34
2022-10-29T14:07:36.301Z,67.26
2022-10-29T14:10:06.992Z,67.44
2022-10-29T14:12:34.825Z,67.47
2022-10-29T14:15:06.743Z,67.03
2022-10-29T14:17:34.215Z,67.00
2022-10-29T14:20:01.645Z,67.59
2022-10-29T14:22:35.193Z,67.11
2022-10-29T14:25:02.941Z,67.17
2022-10-29T14:27:30.437Z,67.39
2022-10-29T14:30:15.337Z,67.29
2022-10-29T14:32:45.256Z,67.51
2022-10-29T14:35:15.876Z,67.20
2022-10-29T14:37:43.660Z,67.22
2022-10-29T14:40:17.740Z,67.58
2022-10-29T14:42:46.100Z,67.37
2022-10-29T14:45:19.396Z,67.73
2022-10-29T14:47:49.691Z,67.62
2022-10-29T14:50:19.480Z,67.98
2022-10-29T14:52:53.258Z,67.82
2022-10-29T14:55:22.406Z,67.79
2022-10-29T14:57:50.802Z,67.72
2022-10-29T15:00:24.860Z,67.62
2022-10-29T15:02:52.342Z,67.64
2022-10-29T15:05:24.848Z,67.79
2022-10-29T15:07:52.264Z,68.10
2022-10-29T15:10:22.077Z,67.73
2022-10-29T15:12:49.941Z,67.90
2022-10-29T15:15:26.412Z,67.85
2022-10-29T15:17:56.580Z,67.65
2022-10-29T15:20:25.342Z,67.58
2022-10-29T15:22:53.913Z,67.54
2022-10-29T15:25:23.880Z,67.63
2022-10-29T15:27:51.287Z,67.63
2022-10-29T15:30:19.556Z,67.56
2022-10-29T15:32:48.285Z,67.83
2022-10-29T15:35:19.720Z,67.99
2022-10-29T15:37:47.214Z,67.96
2022-10-29T15:40:15.546Z,68.56
2022-10-29T15:42:42.989Z,69.07
2022-10-29T15:45:21.500Z,69.17
2022-10-29T15:47:50.739Z,69.15
2022-10-29T15:50:19.400Z,69.23
2022-10-29T15:52:48.748Z,69.03
2022-10-29T15:55:26.006Z,69.14
2022-10-29T15:57:54.596Z,68.97
2022-10-29T16:00:23.748Z,69.21
2022-10-29T16:02:52.449Z,69.20
2022-10-29T16:05:19.882Z,69.18
2022-10-29T16:07:47.785Z,68.99
2022-10-29T16:10:16.861Z,69.11
2022-10-29T16:12:44.347Z,69.14
2022-10-29T16:15:18.782Z,69.21
2022-10-29T16:17:46.500Z,69.05
2022-10-29T16:20:16.399Z,69.14
2022-10-29T16:22:43.812Z,69.02
2022-10-29T16:25:20.837Z,68.85
2022-10-29T16:27:48.247Z,68.91
2022-10-29T16:30:15.879Z,68.84
2022-10-29T16:32:43.378Z,68.92
2022-10-29T16:35:17.328Z,69.21
2022-10-29T16:37:44.740Z,68.90
2022-10-29T16:40:12.763Z,68.88
2022-10-29T16:42:40.250Z,68.67
2022-10-29T16:45:10.031Z,68.85
2022-10-29T16:47:37.461Z,68.90
2022-10-29T16:50:05.227Z,68.83
2022-10-29T16:52:33.941Z,69.00
2022-10-29T16:55:01.362Z,69.10
2022-10-29T16:57:29.392Z,68.80
2022-10-29T16:59:56.797Z,69.04
2022-10-29T17:02:24.255Z,69.09
2022-10-29T17:04:51.676Z,68.80
2022-10-29T17:07:19.113Z,68.59
2022-10-29T17:09:47.805Z,68.76
2022-10-29T17:12:15.229Z,69.03
2022-10-29T17:14:42.664Z,68.66
2022-10-29T17:17:10.062Z,69.08
2022-10-29T17:19:37.477Z,68.85
2022-10-29T17:22:05.661Z,69.00
2022-10-29T17:24:33.557Z,69.00
2022-10-29T17:27:05.237Z,68.92
2022-10-29T17:29:36.594Z,69.03
2022-10-29T17:34:36.619Z,68.83
2022-10-29T17:37:04.049Z,69.15
2022-10-29T17:39:31.494Z,69.14
2022-10-29T17:41:58.955Z,68.94
2022-10-29T17:44:27.661Z,69.06
2022-10-29T17:46:55.129Z,69.41
2022-10-29T17:49:22.538Z,69.41
2022-10-29T17:51:49.944Z,69.12
2022-10-29T17:54:17.460Z,69.08
2022-10-29T17:56:44.915Z,69.12
2022-10-29T17:59:12.364Z,70.28
2022-10-29T18:01:41.132Z,70.51
2022-10-29T18:04:08.592Z,70.20
2022-10-29T18:06:35.974Z,70.13
2022-10-29T18:09:03.408Z,70.22
2022-10-29T18:11:30.825Z,69.93
2022-10-29T18:13:58.455Z,69.81
2022-10-29T18:16:26.619Z,69.87
2022-10-29T18:19:02.095Z,69.92
2022-10-29T18:21:30.445Z,70.04
2022-10-29T18:23:58.042Z,70.12
2022-10-29T18:26:26.540Z,69.91
2022-10-29T18:28:54.030Z,69.96
2022-10-29T18:31:21.616Z,69.93
2022-10-29T18:33:49.046Z,70.00
2022-10-29T18:36:17.811Z,70.02
2022-10-29T18:38:45.210Z,70.01
2022-10-29T18:41:12.620Z,70.08
2022-10-29T18:43:40.029Z,70.14
2022-10-29T18:46:07.463Z,70.07
2022-10-29T18:48:37.370Z,69.99
2022-10-29T18:51:08.038Z,70.13
2022-10-29T18:53:37.040Z,70.22
2022-10-29T18:56:04.967Z,70.29
2022-10-29T18:58:32.990Z,70.52
2022-10-29T19:01:06.265Z,70.07
2022-10-29T19:03:33.707Z,70.67
2022-10-29T19:06:02.444Z,70.29
2022-10-29T19:08:29.868Z,70.27
2022-10-29T19:11:02.449Z,69.94
2022-10-29T19:13:30.089Z,70.09
2022-10-29T19:16:01.286Z,69.95
2022-10-29T19:18:28.936Z,69.89
2022-10-29T19:20:56.381Z,69.78
2022-10-29T19:23:28.363Z,69.72
2022-10-29T19:25:55.771Z,69.88
2022-10-29T19:28:24.588Z,69.67
2022-10-29T19:30:52.005Z,69.42
2022-10-29T19:33:19.419Z,69.50
2022-10-29T19:35:46.808Z,69.53
2022-10-29T19:38:14.222Z,69.31
2022-10-29T19:40:42.111Z,69.54
2022-10-29T19:43:09.511Z,69.67
2022-10-29T19:45:40.216Z,69.69
2022-10-29T19:48:08.061Z,69.78
2022-10-29T19:50:35.502Z,69.70
2022-10-29T19:53:02.936Z,69.99
2022-10-29T19:55:30.530Z,70.05
2022-10-29T19:57:57.963Z,70.13
2022-10-29T20:00:25.369Z,70.57
2022-10-29T20:02:54.236Z,70.82
2022-10-29T20:05:21.864Z,70.42
2022-10-29T20:07:50.183Z,70.41
2022-10-29T20:10:17.817Z,70.21
2022-10-29T20:12:45.277Z,70.34
2022-10-29T20:15:12.847Z,70.28
2022-10-29T20:17:40.272Z,70.47
2022-10-29T20:20:15.780Z,70.18
2022-10-29T20:22:46.151Z,70.58
2022-10-29T20:25:15.202Z,70.54
2022-10-29T20:27:42.729Z,70.36
2022-10-29T20:30:11.113Z,70.18
2022-10-29T20:32:38.546Z,70.46
2022-10-29T20:35:06.650Z,70.21
2022-10-29T20:37:35.355Z,70.41
2022-10-29T20:40:02.771Z,70.10
2022-10-29T20:42:30.372Z,70.37
2022-10-29T20:44:57.771Z,70.21
2022-10-29T20:47:25.181Z,70.23
2022-10-29T20:49:52.567Z,70.40
2022-10-29T20:52:19.960Z,70.59
2022-10-29T20:54:48.648Z,70.50
2022-10-29T20:57:16.035Z,70.52
2022-10-29T20:59:43.435Z,70.39
2022-10-29T21:02:11.437Z,70.63
2022-10-29T21:04:39.178Z,70.76
2022-10-29T21:07:07.693Z,70.44
2022-10-29T21:09:35.144Z,70.60
2022-10-29T21:12:03.970Z,70.77
2022-10-29T21:14:31.381Z,70.64
2022-10-29T21:16:58.783Z,70.26
2022-10-29T21:19:28.084Z,70.54
2022-10-29T21:21:55.498Z,70.30
2022-10-29T21:24:22.996Z,70.07
2022-10-29T21:26:50.396Z,70.06
2022-10-29T21:29:19.092Z,69.74
2022-10-29T21:31:48.776Z,70.09
2022-10-29T21:34:16.193Z,69.80
2022-10-29T21:36:43.593Z,69.74
2022-10-29T21:39:11.011Z,69.12
2022-10-29T21:41:38.412Z,69.72
2022-10-29T21:44:08.553Z,69.53
2022-10-29T21:46:37.237Z,69.57
2022-10-29T21:49:04.640Z,69.23
2022-10-29T21:51:32.027Z,69.33
2022-10-29T21:53:59.444Z,69.05
2022-10-29T21:56:26.831Z,68.69
2022-10-29T21:58:54.334Z,69.23
2022-10-29T22:01:21.927Z,69.12
2022-10-29T22:03:50.720Z,68.92
2022-10-29T22:06:18.745Z,68.92
2022-10-29T22:08:46.196Z,68.73
2022-10-29T22:11:13.803Z,69.02
2022-10-29T22:13:41.225Z,69.42
2022-10-29T22:16:09.165Z,69.62
2022-10-29T22:18:36.618Z,69.62
2022-10-29T22:21:06.880Z,69.97
2022-10-29T22:23:34.289Z,69.97
2022-10-29T22:26:01.703Z,69.95
2022-10-29T22:28:29.112Z,70.59
2022-10-29T22:31:00.347Z,70.47
2022-10-29T22:33:27.876Z,70.30
2022-10-29T22:35:55.304Z,70.51
2022-10-29T22:38:24.023Z,70.56
2022-10-29T22:40:51.447Z,70.09
2022-10-29T22:43:18.863Z,70.12
2022-10-29T22:45:46.425Z,70.49
2022-10-29T22:48:13.857Z,70.60
2022-10-29T22:50:41.328Z,70.52
2022-10-29T22:53:08.725Z,70.49
2022-10-29T22:55:37.460Z,70.47
2022-10-29T22:58:04.861Z,70.40
2022-10-29T23:00:32.269Z,70.64
2022-10-29T23:02:59.955Z,70.55
2022-10-29T23:05:27.576Z,70.63
2022-10-29T23:07:55.187Z,70.81
2022-10-29T23:10:22.790Z,70.58
2022-10-29T23:12:51.480Z,70.22
2022-10-29T23:15:18.889Z,70.43
2022-10-29T23:17:46.299Z,70.43
2022-10-29T23:20:13.697Z,70.48
2022-10-29T23:22:41.100Z,70.58
2022-10-29T23:25:09.331Z,70.57
2022-10-29T23:27:36.744Z,70.91
2022-10-29T23:32:33.173Z,70.66
2022-10-29T23:35:00.566Z,70.89
2022-10-29T23:37:28.927Z,70.99
2022-10-29T23:39:56.327Z,70.90
2022-10-29T23:42:23.793Z,70.99
2022-10-29T23:44:51.190Z,70.75
2022-10-29T23:47:19.921Z,70.64
2022-10-29T23:49:47.312Z,70.97
2022-10-29T23:52:14.712Z,71.16
2022-10-29T23:54:42.101Z,71.28
2022-10-29T23:57:09.499Z,71.29
2022-10-29T23:59:36.883Z,71.07
